createdAt,value
2019-03-01T00:00:19.359Z,99548.59
2019-03-01T00:03:05.781Z,99548.59
2019-03-01T00:08:25.074Z,99543.87
2019-03-01T00:10:55.072Z,99541.06
2019-03-01T00:13:41.513Z,99537.46
2019-03-01T00:16:09.067Z,99534.80
2019-03-01T00:18:36.677Z,99528.00
2019-03-01T00:21:23.050Z,99523.19
2019-03-01T00:23:50.757Z,99528.36
2019-03-01T00:29:11.348Z,99513.14
2019-03-01T00:31:39.046Z,99513.14
2019-03-01T00:34:07.120Z,99505.28
2019-03-01T00:36:34.790Z,99505.28
2019-03-01T00:39:21.093Z,99504.81
2019-03-01T00:41:48.829Z,99504.31
2019-03-01T00:44:16.404Z,99505.64
2019-03-01T00:47:02.837Z,99500.67
2019-03-01T00:49:33.154Z,99498.02
2019-03-01T00:52:19.505Z,99494.03
2019-03-01T00:54:47.032Z,99493.67
2019-03-01T00:57:14.745Z,99496.60
2019-03-01T01:00:01.120Z,99492.27
2019-03-01T01:02:28.809Z,99495.55
2019-03-01T01:04:56.577Z,99495.55
2019-03-01T01:07:42.955Z,99475.52
2019-03-01T01:10:10.727Z,99469.46
2019-03-01T01:12:57.162Z,99474.07
2019-03-01T01:15:43.568Z,99470.20
2019-03-01T01:18:11.596Z,99470.20
2019-03-01T01:20:57.991Z,99464.89
2019-03-01T01:23:25.682Z,99463.20
2019-03-01T01:25:53.236Z,99457.65
2019-03-01T01:28:39.667Z,99448.85
2019-03-01T01:31:07.298Z,99448.85
2019-03-01T01:33:34.897Z,99453.90
2019-03-01T01:36:22.929Z,99448.58
2019-03-01T01:38:50.547Z,99448.11
2019-03-01T01:41:37.896Z,99450.15
2019-03-01T01:44:05.639Z,99443.63
2019-03-01T01:46:52.308Z,99441.82
2019-03-01T01:49:20.001Z,99441.82
2019-03-01T01:51:47.665Z,99439.63
2019-03-01T01:54:15.233Z,99436.50
2019-03-01T01:56:42.901Z,99437.33
2019-03-01T01:59:10.548Z,99432.40
2019-03-01T02:01:57.107Z,99423.45
2019-03-01T02:04:43.533Z,99425.60
2019-03-01T02:07:11.219Z,99425.60
2019-03-01T02:09:57.567Z,99423.45
2019-03-01T02:12:43.976Z,99422.00
2019-03-01T02:15:12.646Z,99425.64
2019-03-01T02:17:59.620Z,99420.95
2019-03-01T02:20:27.167Z,99420.95
2019-03-01T02:22:54.835Z,99420.95
2019-03-01T02:25:22.506Z,99421.42
2019-03-01T02:27:50.157Z,99417.94
2019-03-01T02:30:17.946Z,99409.45
2019-03-01T02:32:45.584Z,99409.45
2019-03-01T02:38:06.320Z,99408.63
2019-03-01T02:40:52.689Z,99405.47
2019-03-01T02:43:20.784Z,99398.83
2019-03-01T02:45:48.441Z,99398.83
2019-03-01T02:48:34.852Z,99402.34
2019-03-01T02:51:02.509Z,99398.83
2019-03-01T02:53:31.715Z,99402.81
2019-03-01T02:56:18.110Z,99403.67
2019-03-01T02:58:45.715Z,99399.18
2019-03-01T03:03:45.781Z,99395.07
2019-03-01T03:06:32.313Z,99395.07
2019-03-01T03:09:18.763Z,99391.94
2019-03-01T03:11:46.477Z,99391.94
2019-03-01T03:14:14.421Z,99384.56
2019-03-01T03:17:00.919Z,99384.56
2019-03-01T03:19:47.274Z,99381.70
2019-03-01T03:22:14.913Z,99381.70
2019-03-01T03:25:01.372Z,99384.13
2019-03-01T03:27:29.373Z,99384.13
2019-03-01T03:29:57.133Z,99384.59
2019-03-01T03:32:24.909Z,99384.59
2019-03-01T03:34:52.523Z,99376.27
2019-03-01T03:37:20.217Z,99373.61
2019-03-01T03:40:06.544Z,99373.61
2019-03-01T03:42:52.989Z,99371.94
2019-03-01T03:45:39.302Z,99371.94
2019-03-01T03:48:06.878Z,99374.59
2019-03-01T03:50:53.158Z,99367.59
2019-03-01T03:53:20.873Z,99367.59
2019-03-01T03:56:08.932Z,99364.08
2019-03-01T03:58:36.953Z,99363.38
2019-03-01T04:01:04.929Z,99364.83
2019-03-01T04:03:51.334Z,99368.58
2019-03-01T04:06:19.086Z,99365.72
2019-03-01T04:09:05.792Z,99366.46
2019-03-01T04:11:33.564Z,99366.46
2019-03-01T04:14:01.323Z,99364.75
2019-03-01T04:16:47.616Z,99367.55
2019-03-01T04:19:15.294Z,99360.68
2019-03-01T04:22:01.693Z,99364.16
2019-03-01T04:24:29.388Z,99353.80
2019-03-01T04:27:16.031Z,99352.59
2019-03-01T04:29:43.715Z,99353.56
2019-03-01T04:35:18.195Z,99347.43
2019-03-01T04:37:45.824Z,99347.43
2019-03-01T04:40:13.639Z,99350.44
2019-03-01T04:42:41.752Z,99351.41
2019-03-01T04:45:09.352Z,99349.11
2019-03-01T04:47:57.336Z,99356.45
2019-03-01T04:50:43.602Z,99355.05
2019-03-01T04:53:11.205Z,99355.05
2019-03-01T04:55:57.525Z,99353.13
2019-03-01T04:58:25.177Z,99353.13
2019-03-01T05:01:11.785Z,99352.39
2019-03-01T05:03:39.545Z,99352.54
2019-03-01T05:06:07.213Z,99352.54
2019-03-01T05:08:35.268Z,99351.69
2019-03-01T05:11:21.616Z,99351.33
2019-03-01T05:14:08.355Z,99350.12
2019-03-01T05:16:54.779Z,99355.94
2019-03-01T05:19:22.453Z,99355.94
2019-03-01T05:22:08.843Z,99358.00
2019-03-01T05:24:36.403Z,99358.00
2019-03-01T05:29:38.289Z,99360.89
2019-03-01T05:32:08.652Z,99356.82
2019-03-01T05:34:55.010Z,99358.73
2019-03-01T05:37:22.631Z,99358.73
2019-03-01T05:40:08.987Z,99366.11
2019-03-01T05:42:36.635Z,99366.11
2019-03-01T05:45:04.697Z,99364.43
2019-03-01T05:47:51.010Z,99368.03
2019-03-01T05:50:18.667Z,99368.41
2019-03-01T05:52:46.215Z,99370.21
2019-03-01T05:55:32.534Z,99365.38
2019-03-01T05:58:00.061Z,99367.09
2019-03-01T06:00:27.617Z,99369.74
2019-03-01T06:03:14.012Z,99372.40
2019-03-01T06:05:41.856Z,99380.22
2019-03-01T06:08:42.448Z,99373.11
2019-03-01T06:10:58.301Z,99373.11
2019-03-01T06:13:28.973Z,99374.67
2019-03-01T06:15:58.793Z,99374.67
2019-03-01T06:18:26.329Z,99383.46
2019-03-01T06:20:54.092Z,99376.35
2019-03-01T06:23:21.693Z,99376.35
2019-03-01T06:25:49.241Z,99374.91
2019-03-01T06:28:35.650Z,99385.63
2019-03-01T06:31:03.275Z,99385.63
2019-03-01T06:33:31.044Z,99382.97
2019-03-01T06:39:04.142Z,99385.97
2019-03-01T06:42:04.356Z,99391.17
2019-03-01T06:44:19.667Z,99394.89
2019-03-01T06:46:47.605Z,99396.56
2019-03-01T06:49:33.959Z,99396.80
2019-03-01T06:52:01.902Z,99396.80
2019-03-01T06:54:31.824Z,99400.05
2019-03-01T06:56:59.561Z,99400.05
2019-03-01T06:59:29.093Z,99402.95
2019-03-01T07:01:56.575Z,99405.48
2019-03-01T07:04:24.117Z,99405.48
2019-03-01T07:06:51.999Z,99413.69
2019-03-01T07:09:26.574Z,99407.14
2019-03-01T07:11:54.111Z,99407.14
2019-03-01T07:14:21.953Z,99411.24
2019-03-01T07:16:49.821Z,99415.31
2019-03-01T07:19:17.356Z,99418.91
2019-03-01T07:21:45.255Z,99418.91
2019-03-01T07:24:12.929Z,99421.80
2019-03-01T07:26:40.489Z,99421.80
2019-03-01T07:29:08.298Z,99433.61
2019-03-01T07:31:35.893Z,99433.61
2019-03-01T07:34:03.499Z,99426.70
2019-03-01T07:36:31.316Z,99439.63
2019-03-01T07:38:58.934Z,99439.63
2019-03-01T07:41:26.540Z,99441.16
2019-03-01T07:43:54.352Z,99441.16
2019-03-01T07:46:21.881Z,99442.49
2019-03-01T07:48:49.385Z,99445.89
2019-03-01T07:51:16.911Z,99445.89
2019-03-01T07:53:44.475Z,99446.83
2019-03-01T07:56:12.212Z,99453.13
2019-03-01T07:58:45.146Z,99456.28
2019-03-01T08:01:12.700Z,99462.78
2019-03-01T08:03:42.578Z,99463.64
2019-03-01T08:06:14.357Z,99463.64
2019-03-01T08:08:42.126Z,99466.30
2019-03-01T08:11:09.706Z,99458.67
2019-03-01T08:13:49.440Z,99461.57
2019-03-01T08:16:10.374Z,99464.11
2019-03-01T08:18:44.122Z,99464.11
2019-03-01T08:21:11.505Z,99470.61
2019-03-01T08:23:42.170Z,99479.56
2019-03-01T08:26:11.794Z,99479.56
2019-03-01T08:28:40.169Z,99477.52
2019-03-01T08:31:09.926Z,99488.16
2019-03-01T08:33:42.397Z,99488.16
2019-03-01T08:36:14.387Z,99483.31
2019-03-01T08:38:42.258Z,99492.14
2019-03-01T08:41:09.853Z,99486.47
2019-03-01T08:43:37.404Z,99494.09
2019-03-01T08:46:05.443Z,99496.41
2019-03-01T08:48:34.850Z,99506.53
2019-03-01T08:51:02.493Z,99505.31
2019-03-01T08:53:31.898Z,99512.94
2019-03-01T08:55:59.522Z,99510.90
2019-03-01T08:58:29.039Z,99522.86
2019-03-01T09:00:59.873Z,99522.86
2019-03-01T09:03:27.553Z,99517.19
2019-03-01T09:05:55.008Z,99521.06
2019-03-01T09:08:22.927Z,99527.56
2019-03-01T09:10:50.458Z,99532.76
2019-03-01T09:13:18.050Z,99532.76
2019-03-01T09:15:49.360Z,99529.75
2019-03-01T09:18:17.885Z,99537.13
2019-03-01T09:20:47.136Z,99537.13
2019-03-01T09:23:22.853Z,99535.80
2019-03-01T09:25:50.126Z,99538.10
2019-03-01T09:28:17.695Z,99538.10
2019-03-01T09:30:45.902Z,99544.48
2019-03-01T09:33:13.352Z,99545.81
2019-03-01T09:36:05.763Z,99548.73
2019-03-01T09:38:39.535Z,99555.38
2019-03-01T09:41:08.364Z,99555.38
2019-03-01T09:43:43.367Z,99560.45
2019-03-01T09:46:15.188Z,99563.14
2019-03-01T09:48:41.603Z,99570.75
2019-03-01T09:51:10.640Z,99581.02
2019-03-01T09:53:40.642Z,99581.02
2019-03-01T09:56:09.716Z,99580.17
2019-03-01T09:58:38.783Z,99584.78
2019-03-01T10:01:08.773Z,99589.14
2019-03-01T10:03:36.404Z,99588.54
2019-03-01T10:06:05.663Z,99588.54
2019-03-01T10:08:33.249Z,99596.28
2019-03-01T10:11:00.808Z,99596.28
2019-03-01T10:13:30.329Z,99599.91
2019-03-01T10:15:58.067Z,99602.22
2019-03-01T10:18:27.843Z,99602.22
2019-03-01T10:20:55.406Z,99610.66
2019-03-01T10:23:22.991Z,99611.85
2019-03-01T10:25:50.581Z,99614.98
2019-03-01T10:28:19.711Z,99614.98
2019-03-01T10:30:47.268Z,99619.22
2019-03-01T10:33:14.832Z,99619.22
2019-03-01T10:35:45.022Z,99625.86
2019-03-01T10:38:12.661Z,99634.66
2019-03-01T10:40:40.197Z,99636.84
2019-03-01T10:43:08.432Z,99636.84
2019-03-01T10:45:36.019Z,99642.73
2019-03-01T10:48:05.828Z,99648.53
2019-03-01T10:50:33.705Z,99651.30
2019-03-01T10:53:01.321Z,99651.30
2019-03-01T10:55:28.901Z,99656.60
2019-03-01T10:57:56.663Z,99662.48
2019-03-01T11:00:24.602Z,99669.73
2019-03-01T11:02:52.159Z,99669.73
2019-03-01T11:05:23.998Z,99672.98
2019-03-01T11:07:51.626Z,99677.22
2019-03-01T11:10:19.240Z,99682.63
2019-03-01T11:12:47.041Z,99691.16
2019-03-01T11:15:14.551Z,99689.21
2019-03-01T11:17:42.162Z,99689.21
2019-03-01T11:20:10.913Z,99690.67
2019-03-01T11:22:38.363Z,99690.67
2019-03-01T11:25:07.867Z,99692.81
2019-03-01T11:27:35.718Z,99692.81
2019-03-01T11:30:03.346Z,99692.81
2019-03-01T11:32:30.885Z,99691.59
2019-03-01T11:34:59.806Z,99691.59
2019-03-01T11:37:27.339Z,99693.42
2019-03-01T11:39:55.981Z,99693.42
2019-03-01T11:42:26.126Z,99696.44
2019-03-01T11:44:53.712Z,99695.00
2019-03-01T11:47:21.273Z,99706.44
2019-03-01T11:49:54.179Z,99706.80
2019-03-01T11:52:24.452Z,99706.80
2019-03-01T11:54:54.196Z,99719.11
2019-03-01T11:57:23.074Z,99720.59
2019-03-01T11:59:50.561Z,99719.98
2019-03-01T12:02:19.828Z,99723.75
2019-03-01T12:04:47.650Z,99725.19
2019-03-01T12:07:15.222Z,99725.19
2019-03-01T12:09:42.760Z,99727.94
2019-03-01T12:12:17.567Z,99724.09
2019-03-01T12:14:45.406Z,99724.09
2019-03-01T12:17:16.091Z,99733.39
2019-03-01T12:19:43.971Z,99733.39
2019-03-01T12:22:17.094Z,99732.38
2019-03-01T12:24:40.767Z,99732.38
2019-03-01T12:27:18.850Z,99738.17
2019-03-01T12:29:48.674Z,99747.36
2019-03-01T12:32:23.218Z,99742.41
2019-03-01T12:34:48.462Z,99742.41
2019-03-01T12:37:34.878Z,99747.13
2019-03-01T12:40:04.957Z,99748.45
2019-03-01T12:42:32.528Z,99748.45
2019-03-01T12:45:00.358Z,99758.09
2019-03-01T12:47:29.269Z,99764.98
2019-03-01T12:49:56.801Z,99764.98
2019-03-01T12:52:24.369Z,99766.78
2019-03-01T12:54:51.903Z,99766.78
2019-03-01T12:57:22.145Z,99780.05
2019-03-01T12:59:50.059Z,99776.83
2019-03-01T13:02:17.524Z,99776.83
2019-03-01T13:04:53.482Z,99784.19
2019-03-01T13:07:21.584Z,99799.74
2019-03-01T13:09:49.197Z,99799.74
2019-03-01T13:12:17.089Z,99800.53
2019-03-01T13:14:44.885Z,99802.04
2019-03-01T13:17:12.427Z,99820.52
2019-03-01T13:19:39.987Z,99820.52
2019-03-01T13:22:09.790Z,99820.66
2019-03-01T13:24:40.534Z,99823.20
2019-03-01T13:27:07.652Z,99823.20
2019-03-01T13:29:35.500Z,99831.49
2019-03-01T13:32:11.240Z,99827.11
2019-03-01T13:34:38.463Z,99820.88
2019-03-01T13:37:06.658Z,99820.88
2019-03-01T13:39:34.198Z,99831.57
2019-03-01T13:42:01.775Z,99831.57
2019-03-01T13:44:29.980Z,99831.57
2019-03-01T13:46:57.556Z,99831.57
2019-03-01T13:49:26.710Z,99828.65
2019-03-01T13:51:54.548Z,99831.89
2019-03-01T13:54:25.230Z,99831.89
2019-03-01T13:56:53.850Z,99835.50
2019-03-01T13:59:21.700Z,99836.37
2019-03-01T14:01:49.226Z,99836.37
2019-03-01T14:04:16.838Z,99845.01
2019-03-01T14:07:03.210Z,99845.01
2019-03-01T14:20:06.737Z,99841.96
2019-03-01T14:22:34.606Z,99850.72
2019-03-01T14:25:05.220Z,99843.33
2019-03-01T14:27:31.680Z,99843.33
2019-03-01T14:29:59.179Z,99842.50
2019-03-01T14:32:45.448Z,99846.20
2019-03-01T14:35:16.149Z,99855.02
2019-03-01T14:37:54.210Z,99855.02
2019-03-01T14:40:22.780Z,99851.88
2019-03-01T14:42:56.880Z,99856.22
2019-03-01T14:45:20.078Z,99865.85
2019-03-01T14:47:50.727Z,99863.16
2019-03-01T14:50:25.810Z,99856.75
2019-03-01T14:52:58.079Z,99858.53
2019-03-01T14:55:24.888Z,99857.95
2019-03-01T14:57:54.989Z,99862.69
2019-03-01T15:00:22.549Z,99862.69
2019-03-01T15:02:50.479Z,99859.55
2019-03-01T15:05:20.052Z,99859.81
2019-03-01T15:07:47.513Z,99872.88
2019-03-01T15:10:21.113Z,99872.88
2019-03-01T15:12:54.065Z,99874.20
2019-03-01T15:15:22.882Z,99882.39
2019-03-01T15:17:53.828Z,99885.80
2019-03-01T15:20:25.761Z,99887.13
2019-03-01T15:22:53.657Z,99887.13
2019-03-01T15:25:24.255Z,99893.48
2019-03-01T15:27:51.723Z,99893.48
2019-03-01T15:30:19.550Z,99905.03
2019-03-01T15:32:56.198Z,99905.98
2019-03-01T15:35:23.756Z,99909.23
2019-03-01T15:37:51.363Z,99911.36
2019-03-01T15:40:18.925Z,99913.45
2019-03-01T15:42:51.457Z,99911.49
2019-03-01T15:45:20.534Z,99911.49
2019-03-01T15:47:50.272Z,99925.31
2019-03-01T15:50:17.599Z,99918.14
2019-03-01T15:52:45.612Z,99925.53
2019-03-01T15:55:14.421Z,99927.95
2019-03-01T15:57:44.939Z,99938.36
2019-03-01T16:00:12.415Z,99939.61
2019-03-01T16:02:40.139Z,99939.61
2019-03-01T16:05:07.939Z,99940.49
2019-03-01T16:07:35.466Z,99943.14
2019-03-01T16:10:08.114Z,99943.14
2019-03-01T16:12:37.919Z,99942.65
2019-03-01T16:15:05.175Z,99950.50
2019-03-01T16:17:35.861Z,99947.36
2019-03-01T16:20:25.127Z,99951.16
2019-03-01T16:22:54.079Z,99951.16
2019-03-01T16:25:21.528Z,99957.48
2019-03-01T16:27:54.180Z,99966.38
2019-03-01T16:30:21.512Z,99974.12
2019-03-01T16:32:50.615Z,99976.40
2019-03-01T16:35:20.281Z,99976.40
2019-03-01T16:37:49.673Z,99966.69
2019-03-01T16:40:19.592Z,99966.32
2019-03-01T16:42:54.153Z,99969.05
2019-03-01T16:45:21.181Z,99984.94
2019-03-01T16:47:54.506Z,99987.38
2019-03-01T16:50:22.121Z,99987.38
2019-03-01T16:52:52.083Z,99997.42
2019-03-01T16:55:24.321Z,99997.42
2019-03-01T16:57:52.424Z,100008.09
2019-03-01T17:00:20.325Z,100007.06
2019-03-01T17:02:50.053Z,100006.20
2019-03-01T17:05:17.605Z,100003.30
2019-03-01T17:07:45.186Z,100008.19
2019-03-01T17:10:14.890Z,100008.19
2019-03-01T17:12:42.393Z,100018.52
2019-03-01T17:15:13.851Z,100024.63
2019-03-01T17:17:41.411Z,100024.63
2019-03-01T17:20:10.813Z,100029.55
2019-03-01T17:22:38.290Z,100037.95
2019-03-01T17:25:06.163Z,100037.40
2019-03-01T17:27:34.119Z,100037.03
2019-03-01T17:30:01.600Z,100037.03
2019-03-01T17:32:29.392Z,100032.57
2019-03-01T17:35:01.139Z,100029.47
2019-03-01T17:37:32.279Z,100036.53
2019-03-01T17:39:58.771Z,100038.23
2019-03-01T17:42:26.247Z,100038.23
2019-03-01T17:44:54.482Z,100047.20
2019-03-01T17:47:25.457Z,100041.83
2019-03-01T17:49:54.080Z,100041.83
2019-03-01T17:52:22.063Z,100041.45
2019-03-01T17:54:49.941Z,100047.32
2019-03-01T17:57:20.190Z,100043.35
2019-03-01T17:59:48.357Z,100043.35
2019-03-01T18:02:17.112Z,100040.13
2019-03-01T18:04:44.686Z,100053.84
2019-03-01T18:07:12.256Z,100047.10
2019-03-01T18:09:40.017Z,100048.62
2019-03-01T18:12:07.683Z,100057.02
2019-03-01T18:14:36.905Z,100054.11
2019-03-01T18:17:04.841Z,100058.83
2019-03-01T18:19:33.427Z,100059.58
2019-03-01T18:22:01.153Z,100059.58
2019-03-01T18:24:29.892Z,100055.61
2019-03-01T18:26:57.449Z,100069.41
2019-03-01T18:29:24.953Z,100069.41
2019-03-01T18:31:52.763Z,100070.23
2019-03-01T18:34:20.331Z,100072.80
2019-03-01T18:36:50.591Z,100077.14
2019-03-01T18:39:21.352Z,100077.14
2019-03-01T18:41:49.739Z,100080.55
2019-03-01T18:44:17.310Z,100080.55
2019-03-01T18:47:04.002Z,100084.39
2019-03-01T18:49:31.582Z,100095.08
2019-03-01T18:52:08.064Z,100095.08
2019-03-01T18:54:35.829Z,100100.91
2019-03-01T18:57:04.622Z,100104.49
2019-03-01T18:59:32.431Z,100103.73
2019-03-01T19:02:13.833Z,100103.73
2019-03-01T19:04:41.100Z,100102.05
2019-03-01T19:07:15.207Z,100102.32
2019-03-01T19:09:43.043Z,100108.06
2019-03-01T19:12:13.580Z,100116.37
2019-03-01T19:14:59.023Z,100117.96
2019-03-01T19:17:26.560Z,100117.96
2019-03-01T19:19:54.390Z,100119.91
2019-03-01T19:22:28.030Z,100119.23
2019-03-01T19:24:54.152Z,100119.23
2019-03-01T19:27:25.690Z,100117.05
2019-03-01T19:29:53.259Z,100121.58
2019-03-01T19:32:27.920Z,100121.58
2019-03-01T19:34:58.979Z,100116.45
2019-03-01T19:37:26.367Z,100116.45
2019-03-01T19:39:56.457Z,100115.13
2019-03-01T19:42:29.507Z,100127.70
2019-03-01T19:44:56.645Z,100127.70
2019-03-01T19:47:26.492Z,100124.97
2019-03-01T19:49:53.662Z,100124.97
2019-03-01T19:52:24.937Z,100130.64
2019-03-01T19:54:52.524Z,100127.99
2019-03-01T19:57:22.326Z,100126.59
2019-03-01T19:59:53.643Z,100126.59
2019-03-01T20:02:21.184Z,100132.63
2019-03-01T20:04:49.022Z,100130.07
2019-03-01T20:07:19.776Z,100130.07
2019-03-01T20:09:47.187Z,100129.23
2019-03-01T20:12:15.036Z,100131.50
2019-03-01T20:14:42.582Z,100126.30
2019-03-01T20:17:10.552Z,100125.43
2019-03-01T20:19:38.426Z,100121.02
2019-03-01T20:22:10.423Z,100132.34
2019-03-01T20:24:40.451Z,100132.34
2019-03-01T20:27:07.571Z,100131.02
2019-03-01T20:29:35.164Z,100131.69
2019-03-01T20:32:05.682Z,100126.89
2019-03-01T20:34:34.779Z,100126.89
2019-03-01T20:37:09.941Z,100125.16
2019-03-01T20:39:37.461Z,100128.67
2019-03-01T20:42:08.319Z,100128.67
2019-03-01T20:44:40.890Z,100125.16
2019-03-01T20:47:09.432Z,100125.16
2019-03-01T20:49:40.654Z,100132.17
2019-03-01T20:52:08.321Z,100122.36
2019-03-01T20:54:35.866Z,100122.36
2019-03-01T20:57:03.725Z,100127.00
2019-03-01T20:59:31.251Z,100117.11
2019-03-01T21:02:01.183Z,100117.11
2019-03-01T21:04:53.402Z,100112.49
2019-03-01T21:07:22.412Z,100113.33
2019-03-01T21:09:50.229Z,100111.63
2019-03-01T21:12:18.559Z,100118.23
2019-03-01T21:14:46.180Z,100118.23
2019-03-01T21:17:16.808Z,100124.92
2019-03-01T21:19:43.794Z,100124.92
2019-03-01T21:22:17.897Z,100120.95
2019-03-01T21:24:45.635Z,100127.97
2019-03-01T21:27:13.179Z,100127.97
2019-03-01T21:29:57.883Z,100130.12
2019-03-01T21:32:26.745Z,100130.12
2019-03-01T21:34:54.328Z,100131.45
2019-03-01T21:37:21.823Z,100128.81
2019-03-01T21:39:49.663Z,100127.48
2019-03-01T21:42:20.295Z,100123.71
2019-03-01T21:44:46.718Z,100128.05
2019-03-01T21:47:15.545Z,100129.30
2019-03-01T21:49:45.173Z,100129.30
2019-03-01T21:52:12.295Z,100128.88
2019-03-01T21:54:40.107Z,100131.45
2019-03-01T21:57:09.809Z,100132.69
2019-03-01T21:59:38.479Z,100136.66
2019-03-01T22:02:06.350Z,100136.66
2019-03-01T22:04:38.263Z,100139.22
2019-03-01T22:07:09.903Z,100140.55
2019-03-01T22:09:42.059Z,100140.55
2019-03-01T22:12:12.688Z,100146.20
2019-03-01T22:14:40.295Z,100143.19
2019-03-01T22:17:10.380Z,100139.22
2019-03-01T22:19:38.528Z,100140.13
2019-03-01T22:22:07.413Z,100139.95
2019-03-01T22:24:38.124Z,100139.95
2019-03-01T22:27:08.408Z,100141.42
2019-03-01T22:29:35.961Z,100144.22
2019-03-01T22:32:03.865Z,100136.00
2019-03-01T22:34:32.157Z,100136.00
2019-03-01T22:37:02.344Z,100137.02
2019-03-01T22:39:30.194Z,100135.44
2019-03-01T22:41:57.854Z,100142.65
2019-03-01T22:44:25.391Z,100142.65
2019-03-01T22:46:53.190Z,100142.91
2019-03-01T22:49:20.673Z,100142.91
2019-03-01T22:51:49.557Z,100141.97
2019-03-01T22:54:18.890Z,100141.97
2019-03-01T22:57:05.987Z,100139.78
2019-03-01T22:59:35.713Z,100140.27
2019-03-01T23:02:08.194Z,100141.10
2019-03-01T23:04:35.382Z,100141.03
2019-03-01T23:07:03.278Z,100141.03
2019-03-01T23:09:46.399Z,100146.23
2019-03-01T23:12:22.325Z,100139.52
2019-03-01T23:15:11.801Z,100146.05
2019-03-01T23:20:27.491Z,100150.23
2019-03-01T23:23:14.033Z,100150.23
2019-03-01T23:25:42.911Z,100151.09
2019-03-01T23:28:30.379Z,100140.83
2019-03-01T23:31:09.558Z,100140.83
2019-03-01T23:33:27.679Z,100138.56
2019-03-01T23:39:21.682Z,100134.33
2019-03-01T23:44:41.519Z,100129.05
2019-03-01T23:47:09.464Z,100124.14
2019-03-01T23:49:59.377Z,100121.42
2019-03-01T23:52:24.983Z,100121.42
2019-03-01T23:55:11.303Z,100122.66
2019-03-01T23:57:41.039Z,100122.66
